HOURLY OBS INDEX

002

Kimberley - east

ARGYLE AERODROME

Site: 002064
Alt: 164.0m
101km SSW of KUNUNURRA


  Time     Wind        Temp  DP   Baro     Rain since   Rain past  Vis(m), Cloud(base in m), Weather
  local        km/h                         9am  last   hr   10m    
Mon 17:00    E  7/ 13  41.0 15.1  1002.9    0.0   0.0   0.0   0.0   10000|SC2490 
Mon 17:00    E  7/ 13  41.0 15.1  1002.9    0.0   0.0  ----   0.0   10000|SC2490 
Mon 17:30    N  4/  7  40.4 15.2  1003.1    0.0   0.0   0.0   0.0   10000|SC2490 BR3750 
Mon 17:30    N  4/  7  40.4 15.2  1003.1    0.0   0.0  ----   0.0   10000|SC2490 BR3750 
Mon 18:00    E  7/  9  38.8 15.8  1003.5    0.0   0.0   0.0   0.0   10000|SC2700 SC3450 
Mon 18:00    E  7/  9  38.8 15.8  1003.5    0.0   0.0  ----   0.0   10000|SC2700 SC3450 
Mon 18:30  NNE 11/ 13  38.6 16.3  1003.9    0.0   0.0   0.0   0.0   10000|SC2610 
Mon 19:00   NE  7/  9  37.2 16.7  1004.2    0.0   0.0   0.0   0.0   10000 
Mon 19:30   NW  9/ 13  37.6 17.6  1004.3    0.0   0.0   0.0   0.0   10000 
Mon 20:00    N 13/ 20  37.6 17.6  1004.7    0.0   0.0   0.0   0.0   10000 
Mon 20:30    N 24/ 33  36.6 20.4  1005.3    0.0   0.0   0.0   0.0   10000 
Mon 21:00    N 17/ 20  36.3 20.5  1005.5    0.0   0.0   0.0   0.0   10000 
Mon 21:30    N 19/ 24  35.5 21.7  1005.5    0.0   0.0   0.0   0.0   10000 
Mon 22:00    N 19/ 24  34.9 22.2  1005.5    0.0   0.0   0.0   0.0   10000 
Mon 22:30    N 19/ 24  34.4 22.8  1005.7    0.0   0.0   0.0   0.0   10000 

HALLS CREEK AIRPORT

Site: 002079
Alt: 409.4m
km of


  Time     Wind        Temp  DP   Baro     Rain since   Rain past  Vis(m), Cloud(base in m), Weather
  local        km/h                         9am  last   hr   10m    
Mon 17:00  ESE 15/ 19  39.7  9.2  1004.9    0.0   0.0   0.0   0.0   10000 
Mon 17:00  ESE 15/ 19  39.7  9.2  1004.9    0.0   0.0  ----   0.0   10000 
Mon 17:30   SE 13/ 17  39.1  9.6  1005.2    0.0   0.0   0.0   0.0   10000 
Mon 17:30   SE 13/ 17  39.1  9.6  1005.2    0.0   0.0  ----   0.0   10000 
Mon 18:00  ESE  7/ 11  37.8 11.0  1005.5    0.0   0.0   0.0   0.0   10000 
Mon 18:00  ESE  7/ 11  37.8 11.0  1005.5    0.0   0.0  ----   0.0   10000 
Mon 18:30  ESE  6/  7  35.9 10.9  1005.7    0.0   0.0   0.0   0.0   10000 
Mon 19:00    C  0/  0  34.2 11.4  1005.9    0.0   0.0   0.0   0.0   10000 
Mon 19:30    C  0/  0  32.2 13.4  1006.1    0.0   0.0   0.0   0.0   10000 
Mon 20:00    C  0/  0  31.5 12.8  1006.4    0.0   0.0   0.0   0.0   10000 
Mon 20:30    C  0/  0  31.1 13.4  1006.8    0.0   0.0   0.0   0.0   10000 
Mon 21:00   SE  4/ 15  31.0 13.7  1007.2    0.0   0.0   0.0   0.0   10000 
Mon 21:30  NNW  7/ 11  31.3 15.7  1007.4    0.0   0.0   0.0   0.0   10000 
Mon 22:00    C  0/  0  29.2 15.7  1007.2    0.0   0.0   0.0   0.0   10000 
Mon 22:30    C  0/  0  28.5 15.4  1007.0    0.0   0.0   0.0   0.0   10000 

HALLS CREEK METEOROLOGICAL OFFICE

Site: 002012
Alt: 422.0m
1km WSW of HALLS CREEK


  Time     Wind        Temp  DP   Baro     Rain since   Rain past  Vis(m), Cloud(base in m), Weather
  local        km/h                         9am  last   hr   10m    
Mon 17:00  ------/---  39.6 10.0  1005.1    0.0   0.0   0.0   0.0   ----- 
Mon 17:00  ------/---  39.6 10.0  1005.1    0.0   0.0  ----   0.0   ----- 
Mon 17:30  ------/---  39.2  9.7  1005.4    0.0   0.0   0.0   0.0   ----- 
Mon 17:30  ------/---  39.2  9.7  1005.4    0.0   0.0  ----   0.0   ----- 
Mon 18:00  ------/---  38.1 11.2  1005.7    0.0   0.0   0.0   0.0   ----- 
Mon 18:00  ------/---  38.1 11.2  1005.7    0.0   0.0  ----   0.0   ----- 
Mon 18:30  ------/---  36.6 12.8  1005.9    0.0   0.0   0.0   0.0   ----- 
Mon 19:00  ------/---  36.0 12.9  1006.1    0.0   0.0   0.0   0.0   ----- 
Mon 19:30  ------/---  34.8 11.9  1006.3    0.0   0.0   0.0   0.0   ----- 
Mon 20:00  ------/---  34.1 13.5  1006.6    0.0   0.0   0.0   0.0   ----- 
Mon 20:30  ------/---  33.7 11.5  1007.1    0.0   0.0   0.0   0.0   ----- 
Mon 21:00  ------/---  32.5 13.2  1007.4    0.0   0.0   0.0   0.0   ----- 
Mon 21:30  ------/---  32.3 15.7  1007.6    0.0   0.0   0.0   0.0   ----- 
Mon 22:00  ------/---  30.9 16.9  1007.4    0.0   0.0   0.0   0.0   ----- 
Mon 22:30  ------/---  30.3 16.0  1007.3    0.0   0.0   0.0   0.0   ----- 

KUNUNURRA AERO

Site: 002056
Alt: 44.0m
3km WSW of KUNUNURRA


  Time     Wind        Temp  DP   Baro     Rain since   Rain past  Vis(m), Cloud(base in m), Weather
  local        km/h                         9am  last   hr   10m    
Mon 17:00    N 22/ 28  37.0 22.3  1002.4    0.0   0.0   0.0   0.0   10000 
Mon 17:00    N 22/ 28  37.0 22.3  1002.4    0.0   0.0  ----   0.0   10000 
Mon 17:30    N 17/ 20  35.7 22.3  1002.6    0.0   0.0   0.0   0.0   10000 
Mon 17:30    N 17/ 20  35.7 22.3  1002.6    0.0   0.0  ----   0.0   10000 
Mon 18:00    N 17/ 20  34.6 22.3  1003.0    0.0   0.0   0.0   0.0   10000 
Mon 18:00    N 17/ 20  34.6 22.3  1003.0    0.0   0.0  ----   0.0   10000 
Mon 18:30    N 13/ 17  33.7 24.0  1003.7    0.0   0.0   0.0   0.0   10000 
Mon 19:00    N 20/ 26  33.0 25.3  1004.1    0.0   0.0   0.0   0.0   10000 
Mon 19:30    N 20/ 28  32.1 25.4  1004.2    0.0   0.0   0.0   0.0    8000 
Mon 20:00    N 19/ 28  31.4 25.7  1004.7    0.0   0.0   0.0   0.0   10000 
Mon 20:30    N 17/ 20  30.8 25.8  1005.1    0.0   0.0   0.0   0.0    7000 
Mon 21:00    N 15/ 17  30.3 25.6  1005.4    0.0   0.0   0.0   0.0    9000 
Mon 21:20  NNE 13/ 17  30.1 25.4  1005.6    0.0   0.0  ----   0.0    6000 
Mon 21:30    N 11/ 17  29.9 25.2  1005.6    0.0   0.0   0.0   0.0    6000 
Mon 21:58    N 11/ 15  29.7 25.4  1005.6    0.0   0.0  ----   0.0    8000 
Mon 22:00    N 11/ 15  29.7 25.4  1005.5    0.0   0.0   0.0   0.0    8000 
Mon 22:30  NNE 13/ 17  29.6 25.4  1005.3    0.0   0.0   0.0   0.0   10000 

KUNUNURRA AG STATION

Site: 002GKN
Alt: m
km of


  Time     Wind        Temp  DP   Baro     Rain since   Rain past  Vis(m), Cloud(base in m), Weather
  local        km/h                         9am  last   hr   10m    
Mon 17:00    N  9/ 20  36.9 20.7  ------    0.0   0.0   0.0   0.0   ----- 
Mon 17:30    N  6/ 13  35.7 22.1  ------    0.0   0.0   0.0   0.0   ----- 
Mon 18:00  NNE  6/ 13  34.1 24.1  ------    0.0   0.0   0.0   0.0   ----- 
Mon 18:00  NNE  6/ 13  34.1 24.1  ------    0.0   0.0  ----   0.0   ----- 
Mon 18:30  NNE  7/ 13  33.2 24.9  ------    0.0   0.0   0.0   0.0   ----- 
Mon 19:00  NNE  7/ 13  32.3 25.2  ------    0.0   0.0   0.0   0.0   ----- 
Mon 19:00  NNE  7/ 13  32.3 25.2  ------    0.0   0.0  ----   0.0   ----- 
Mon 19:30  NNE  7/ 15  31.6 25.4  ------    0.0   0.0   0.0   0.0   ----- 
Mon 20:00  NNE  7/ 13  30.9 25.1  ------    0.0   0.0   0.0   0.0   ----- 
Mon 20:30    N  2/  9  30.9 24.5  ------    0.0   0.0   0.0   0.0   ----- 
Mon 21:00  NNE  2/  7  30.5 24.4  ------    0.0   0.0   0.0   0.0   ----- 
Mon 21:30  NNE  4/  7  29.9 24.6  ------    0.0   0.0   0.0   0.0   ----- 
Mon 21:30  NNE  4/  7  29.9 24.6  ------    0.0   0.0  ----   0.0   ----- 
Mon 22:00   NE  6/ 11  29.8 24.6  ------    0.0   0.0   0.0   0.0   ----- 
Mon 22:30   NE  6/  9  29.4 24.8  ------    0.0   0.0   0.0   0.0   -----